createdAt,value
2018-06-12T00:00:36.807Z,11.77
2018-06-12T00:03:05.636Z,11.67
2018-06-12T00:05:34.422Z,12.60
2018-06-12T00:08:03.327Z,12.90
2018-06-12T00:10:32.445Z,11.33
2018-06-12T00:13:01.842Z,12.60
2018-06-12T00:15:31.774Z,11.90
2018-06-12T00:18:00.792Z,12.23
2018-06-12T00:20:29.616Z,12.50
2018-06-12T00:22:58.496Z,12.80
2018-06-12T00:25:38.308Z,13.00
2018-06-12T00:28:07.138Z,14.07
2018-06-12T00:30:35.948Z,14.70
2018-06-12T00:33:04.800Z,12.57
2018-06-12T00:35:33.620Z,12.37
2018-06-12T00:38:02.550Z,15.43
2018-06-12T00:40:31.670Z,15.60
2018-06-12T00:43:00.544Z,15.23
2018-06-12T00:45:29.348Z,14.40
2018-06-12T00:47:58.188Z,16.17
2018-06-12T00:50:27.297Z,16.07
2018-06-12T00:52:56.148Z,14.67
2018-06-12T00:55:24.958Z,16.17
2018-06-12T00:57:53.884Z,14.70
2018-06-12T01:00:22.854Z,15.70
2018-06-12T01:02:51.969Z,15.70
2018-06-12T01:05:20.935Z,13.50
2018-06-12T01:07:50.381Z,14.53
2018-06-12T01:10:19.229Z,12.17
2018-06-12T01:12:48.290Z,13.57
2018-06-12T01:15:17.127Z,15.47
2018-06-12T01:17:45.997Z,13.03
2018-06-12T01:20:15.057Z,11.70
2018-06-12T01:22:43.879Z,13.40
2018-06-12T01:25:12.708Z,13.20
2018-06-12T01:27:41.770Z,13.27
2018-06-12T01:30:10.694Z,13.37
2018-06-12T01:32:39.565Z,12.87
2018-06-12T01:35:08.351Z,12.67
2018-06-12T01:37:37.205Z,12.47
2018-06-12T01:40:06.183Z,14.33
2018-06-12T01:42:35.013Z,13.97
2018-06-12T01:45:03.905Z,13.20
2018-06-12T01:47:32.723Z,14.60
2018-06-12T01:50:01.558Z,14.50
2018-06-12T01:52:30.590Z,14.97
2018-06-12T01:54:59.313Z,14.53
2018-06-12T01:57:28.401Z,13.63
2018-06-12T01:59:57.393Z,16.53
2018-06-12T02:02:26.088Z,13.57
2018-06-12T02:04:54.827Z,14.57
2018-06-12T02:07:23.665Z,15.30
2018-06-12T02:09:52.685Z,16.97
2018-06-12T02:12:21.562Z,15.87
2018-06-12T02:14:50.521Z,15.77
2018-06-12T02:17:19.347Z,15.70
2018-06-12T02:19:48.232Z,15.80
2018-06-12T02:22:17.043Z,16.33
2018-06-12T02:24:45.984Z,16.00
2018-06-12T02:27:14.897Z,16.07
2018-06-12T02:29:43.665Z,16.30
2018-06-12T02:32:12.904Z,18.37
2018-06-12T02:34:41.663Z,17.37
2018-06-12T02:37:10.451Z,15.53
2018-06-12T02:39:39.421Z,16.13
2018-06-12T02:42:08.750Z,15.83
2018-06-12T02:44:37.698Z,11.87
2018-06-12T02:47:06.448Z,14.43
2018-06-12T02:49:35.272Z,13.67
2018-06-12T02:52:04.110Z,12.53
2018-06-12T02:54:33.309Z,13.00
2018-06-12T02:57:02.053Z,11.13
2018-06-12T02:59:31.044Z,10.43
2018-06-12T03:02:01.200Z,9.33
2018-06-12T03:04:29.967Z,9.50
2018-06-12T03:06:58.922Z,9.63
2018-06-12T03:09:27.728Z,9.87
2018-06-12T03:11:56.403Z,8.70
2018-06-12T03:14:25.142Z,9.30
2018-06-12T03:16:54.237Z,9.47
2018-06-12T03:19:23.137Z,7.57
2018-06-12T03:21:52.313Z,8.50
2018-06-12T03:24:21.388Z,10.10
2018-06-12T03:26:50.189Z,10.50
2018-06-12T03:29:18.997Z,10.07
2018-06-12T03:31:47.846Z,10.53
2018-06-12T03:34:16.684Z,9.07
2018-06-12T03:36:46.054Z,10.40
2018-06-12T03:39:14.898Z,10.03
2018-06-12T03:41:43.669Z,9.20
2018-06-12T03:44:12.477Z,8.00
2018-06-12T03:46:41.671Z,9.33
2018-06-12T03:49:10.527Z,9.37
2018-06-12T03:51:39.367Z,10.20
2018-06-12T03:54:08.373Z,8.93
2018-06-12T03:59:31.545Z,9.23
2018-06-12T04:02:00.378Z,10.43
2018-06-12T04:04:29.259Z,9.80
2018-06-12T04:06:58.189Z,8.47
2018-06-12T04:09:26.924Z,9.77
2018-06-12T04:11:55.992Z,8.97
2018-06-12T04:14:30.674Z,9.47
2018-06-12T04:17:05.672Z,8.40
2018-06-12T04:19:37.469Z,8.03
2018-06-12T04:22:10.823Z,8.70
2018-06-12T04:24:40.311Z,10.83
2018-06-12T04:27:08.893Z,8.83
2018-06-12T04:29:37.625Z,8.60
2018-06-12T04:32:06.469Z,8.93
2018-06-12T04:34:35.249Z,9.37
2018-06-12T04:37:04.047Z,8.73
2018-06-12T04:39:32.741Z,9.67
2018-06-12T04:42:01.450Z,9.70
2018-06-12T04:44:30.198Z,9.73
2018-06-12T04:46:59.015Z,8.90
2018-06-12T04:49:27.820Z,8.50
2018-06-12T04:51:56.685Z,9.90
2018-06-12T04:54:25.515Z,8.37
2018-06-12T04:56:54.670Z,7.90
2018-06-12T04:59:23.490Z,9.53
2018-06-12T05:01:57.893Z,7.50
2018-06-12T05:04:26.713Z,7.97
2018-06-12T05:06:55.611Z,9.33
2018-06-12T05:09:24.393Z,10.40
2018-06-12T05:11:53.175Z,9.23
2018-06-12T05:14:22.038Z,8.40
2018-06-12T05:16:50.656Z,7.50
2018-06-12T05:19:19.517Z,10.23
2018-06-12T05:21:48.200Z,10.37
2018-06-12T05:24:17.594Z,8.83
2018-06-12T05:26:46.417Z,11.73
2018-06-12T05:29:15.562Z,10.60
2018-06-12T05:31:44.438Z,8.67
2018-06-12T05:36:59.078Z,9.63
2018-06-12T05:39:27.793Z,9.53
2018-06-12T05:41:56.728Z,9.90
2018-06-12T05:44:25.375Z,9.20
2018-06-12T05:46:54.661Z,10.17
2018-06-12T05:49:23.385Z,9.57
2018-06-12T05:51:52.015Z,8.77
2018-06-12T05:54:21.031Z,9.60
2018-06-12T05:56:49.751Z,11.63
2018-06-12T05:59:18.305Z,11.23
2018-06-12T06:01:46.881Z,11.60
2018-06-12T06:04:15.673Z,9.83
2018-06-12T06:06:45.408Z,10.00
2018-06-12T06:09:14.137Z,9.30
2018-06-12T06:11:43.072Z,12.17
2018-06-12T06:14:19.999Z,11.10
2018-06-12T06:16:49.933Z,11.87
2018-06-12T06:19:20.661Z,10.03
2018-06-12T06:21:49.984Z,9.30
2018-06-12T06:24:19.014Z,11.67
2018-06-12T06:26:48.098Z,11.90
2018-06-12T06:29:20.254Z,12.07
2018-06-12T06:31:48.755Z,12.80
2018-06-12T06:34:20.810Z,12.93
2018-06-12T06:39:43.898Z,13.53
2018-06-12T06:42:12.306Z,11.90
2018-06-12T06:44:40.968Z,13.57
2018-06-12T06:47:09.392Z,15.00
2018-06-12T06:49:37.735Z,13.10
2018-06-12T06:52:06.380Z,14.90
2018-06-12T06:54:34.790Z,12.93
2018-06-12T06:57:03.350Z,14.13
2018-06-12T06:59:31.601Z,14.00
2018-06-12T07:01:59.809Z,15.00
2018-06-12T07:04:28.071Z,13.10
2018-06-12T07:06:56.313Z,14.50
2018-06-12T07:09:24.672Z,14.90
2018-06-12T07:11:53.065Z,14.70
2018-06-12T07:14:23.052Z,14.50
2018-06-12T07:16:51.604Z,15.50
2018-06-12T07:19:19.944Z,14.63
2018-06-12T07:21:48.279Z,14.20
2018-06-12T07:24:16.433Z,16.50
2018-06-12T07:26:44.680Z,14.80
2018-06-12T07:29:13.268Z,14.30
2018-06-12T07:31:41.578Z,14.40
2018-06-12T07:34:09.786Z,14.83
2018-06-12T07:36:38.022Z,13.83
2018-06-12T07:39:07.324Z,14.20
2018-06-12T07:41:35.676Z,16.00
2018-06-12T07:44:04.047Z,15.97
2018-06-12T07:46:32.378Z,16.37
2018-06-12T07:49:01.417Z,15.13
2018-06-12T07:51:29.813Z,17.27
2018-06-12T07:53:59.086Z,16.10
2018-06-12T07:56:27.303Z,13.97
2018-06-12T07:58:55.986Z,16.93
2018-06-12T08:01:24.927Z,17.47
2018-06-12T08:03:53.268Z,15.63
2018-06-12T08:06:21.641Z,17.57
2018-06-12T08:08:49.933Z,19.20
2018-06-12T08:11:18.393Z,19.83
2018-06-12T08:13:46.650Z,17.90
2018-06-12T08:16:15.003Z,17.27
2018-06-12T08:18:43.937Z,17.17
2018-06-12T08:21:12.140Z,19.20
2018-06-12T08:23:40.371Z,17.07
2018-06-12T08:26:08.693Z,19.10
2018-06-12T08:28:37.090Z,19.63
2018-06-12T08:31:05.309Z,17.37
2018-06-12T08:33:33.585Z,20.63
2018-06-12T08:36:01.901Z,64.03
2018-06-12T08:38:30.222Z,24.30
2018-06-12T08:40:58.558Z,41.37
2018-06-12T08:43:27.028Z,27.13
2018-06-12T08:45:55.417Z,24.03
2018-06-12T08:48:23.669Z,21.17
2018-06-12T08:50:52.092Z,17.93
2018-06-12T08:56:07.424Z,16.40
2018-06-12T08:58:35.893Z,10.50
2018-06-12T09:01:04.305Z,10.17
2018-06-12T09:03:32.656Z,14.10
2018-06-12T09:06:00.944Z,14.73
2018-06-12T09:08:29.200Z,9.80
2018-06-12T09:10:57.804Z,12.23
2018-06-12T09:13:25.958Z,10.73
2018-06-12T09:15:54.280Z,10.97
2018-06-12T09:18:22.678Z,13.43
2018-06-12T09:20:50.921Z,9.10
2018-06-12T09:23:19.268Z,11.70
2018-06-12T09:25:47.769Z,11.80
2018-06-12T09:28:16.173Z,11.37
2018-06-12T09:30:44.393Z,12.63
2018-06-12T09:33:12.771Z,9.37
2018-06-12T09:35:41.233Z,11.93
2018-06-12T09:38:09.461Z,8.70
2018-06-12T09:40:37.736Z,9.80
2018-06-12T09:43:05.881Z,13.13
2018-06-12T09:45:34.597Z,10.40
2018-06-12T09:48:03.209Z,11.30
2018-06-12T09:50:32.380Z,11.00
2018-06-12T09:53:01.172Z,8.70
2018-06-12T09:55:30.413Z,10.43
2018-06-12T09:57:59.061Z,10.20
2018-06-12T10:00:34.591Z,10.57
2018-06-12T10:03:06.809Z,10.73
2018-06-12T10:05:37.451Z,10.97
2018-06-12T10:08:06.566Z,9.03
2018-06-12T10:10:35.338Z,10.07
2018-06-12T10:13:03.980Z,8.60
2018-06-12T10:15:32.697Z,8.37
2018-06-12T10:18:01.262Z,10.80
2018-06-12T10:20:30.287Z,11.10
2018-06-12T10:22:59.103Z,10.43
2018-06-12T10:25:27.933Z,10.83
2018-06-12T10:27:59.180Z,9.50
2018-06-12T10:30:30.945Z,8.20
2018-06-12T10:32:59.753Z,9.97
2018-06-12T10:35:28.474Z,12.97
2018-06-12T10:37:57.193Z,10.77
2018-06-12T10:40:26.013Z,7.43
2018-06-12T10:42:55.255Z,8.90
2018-06-12T10:45:23.898Z,10.30
2018-06-12T10:47:58.763Z,9.07
2018-06-12T10:50:27.767Z,9.37
2018-06-12T10:52:57.744Z,11.80
2018-06-12T10:55:26.334Z,9.10
2018-06-12T10:57:55.018Z,7.30
2018-06-12T11:00:23.836Z,11.73
2018-06-12T11:02:54.618Z,12.33
2018-06-12T11:05:23.968Z,12.03
2018-06-12T11:07:52.735Z,10.47
2018-06-12T11:10:21.490Z,11.03
2018-06-12T11:12:50.168Z,9.47
2018-06-12T11:15:18.760Z,10.20
2018-06-12T11:17:47.867Z,8.23
2018-06-12T11:20:16.712Z,7.50
2018-06-12T11:22:45.338Z,7.57
2018-06-12T11:25:14.333Z,8.73
2018-06-12T11:27:42.939Z,7.80
2018-06-12T11:30:11.823Z,6.63
2018-06-12T11:32:40.407Z,8.43
2018-06-12T11:35:09.062Z,9.00
2018-06-12T11:37:37.956Z,7.27
2018-06-12T11:40:06.781Z,8.50
2018-06-12T11:42:35.369Z,8.13
2018-06-12T11:45:04.355Z,8.43
2018-06-12T11:47:32.864Z,7.50
2018-06-12T11:50:07.439Z,7.77
2018-06-12T11:52:35.857Z,8.03
2018-06-12T11:55:04.356Z,7.90
2018-06-12T11:57:33.201Z,11.13
2018-06-12T12:00:01.942Z,9.03
2018-06-12T12:02:30.470Z,7.77
2018-06-12T12:04:59.156Z,9.00
2018-06-12T12:07:27.978Z,9.03
2018-06-12T12:09:56.982Z,8.17
2018-06-12T12:12:25.699Z,7.97
2018-06-12T12:14:54.523Z,7.83
2018-06-12T12:17:23.284Z,7.23
2018-06-12T12:19:51.925Z,8.93
2018-06-12T12:22:22.715Z,8.30
2018-06-12T12:24:51.485Z,8.40
2018-06-12T12:27:20.251Z,8.60
2018-06-12T12:29:49.906Z,10.63
2018-06-12T12:32:18.492Z,8.90
2018-06-12T12:34:54.555Z,7.50
2018-06-12T12:37:24.818Z,6.90
2018-06-12T12:39:54.442Z,6.70
2018-06-12T12:42:23.017Z,8.70
2018-06-12T12:44:51.708Z,10.00
2018-06-12T12:47:23.023Z,8.93
2018-06-12T12:49:51.782Z,9.00
2018-06-12T12:52:20.555Z,9.50
2018-06-12T12:54:49.322Z,7.10
2018-06-12T12:57:18.458Z,8.97
2018-06-12T12:59:47.456Z,8.07
2018-06-12T13:02:16.293Z,7.40
2018-06-12T13:04:45.106Z,8.30
2018-06-12T13:07:13.901Z,6.80
2018-06-12T13:09:42.712Z,7.60
2018-06-12T13:12:11.450Z,8.37
2018-06-12T13:20:25.309Z,7.03
2018-06-12T13:22:53.843Z,8.90
2018-06-12T13:25:29.428Z,8.77
2018-06-12T13:27:58.320Z,7.27
2018-06-12T13:30:27.211Z,7.53
2018-06-12T13:32:56.770Z,7.73
2018-06-12T13:35:25.647Z,7.30
2018-06-12T13:37:54.283Z,8.57
2018-06-12T13:40:22.918Z,7.53
2018-06-12T13:42:51.756Z,7.93
2018-06-12T13:45:20.368Z,7.60
2018-06-12T13:47:48.989Z,7.20
2018-06-12T13:50:21.461Z,7.30
2018-06-12T13:52:50.205Z,8.00
2018-06-12T13:55:22.530Z,7.47
2018-06-12T13:57:51.233Z,7.93
2018-06-12T14:00:21.708Z,7.63
2018-06-12T14:02:50.525Z,7.87
2018-06-12T14:05:19.299Z,7.90
2018-06-12T14:07:48.601Z,6.43
2018-06-12T14:10:17.349Z,8.70
2018-06-12T14:12:47.013Z,7.40
2018-06-12T14:15:15.699Z,7.97
2018-06-12T14:17:44.533Z,6.73
2018-06-12T14:20:13.182Z,7.50
2018-06-12T14:22:42.103Z,8.27
2018-06-12T14:25:10.738Z,8.43
2018-06-12T14:27:43.364Z,8.60
2018-06-12T14:30:12.150Z,6.90
2018-06-12T14:32:40.986Z,11.50
2018-06-12T14:35:09.757Z,8.80
2018-06-12T14:37:38.405Z,10.67
2018-06-12T14:40:08.183Z,9.83
2018-06-12T14:42:36.935Z,9.33
2018-06-12T14:47:58.521Z,10.30
2018-06-12T14:50:27.528Z,8.90
2018-06-12T14:52:56.297Z,9.03
2018-06-12T14:55:25.301Z,8.53
2018-06-12T14:57:54.215Z,7.87
2018-06-12T15:00:22.999Z,7.60
2018-06-12T15:02:52.061Z,8.80
2018-06-12T15:05:20.854Z,9.23
2018-06-12T15:07:49.396Z,8.83
2018-06-12T15:10:18.021Z,8.37
2018-06-12T15:12:47.464Z,9.17
2018-06-12T15:15:16.277Z,8.47
2018-06-12T15:17:44.977Z,7.83
2018-06-12T15:20:14.125Z,9.07
2018-06-12T15:22:42.747Z,8.30
2018-06-12T15:25:11.437Z,6.33
2018-06-12T15:27:40.394Z,8.13
2018-06-12T15:30:09.261Z,8.00
2018-06-12T15:32:38.307Z,7.47
2018-06-12T15:35:07.003Z,7.00
2018-06-12T15:37:36.215Z,7.77
2018-06-12T15:40:05.012Z,6.60
2018-06-12T15:42:34.497Z,7.30
2018-06-12T15:45:03.092Z,7.00
2018-06-12T15:47:31.738Z,6.80
2018-06-12T15:50:08.640Z,8.50
2018-06-12T15:52:37.287Z,7.53
2018-06-12T15:55:10.698Z,7.73
2018-06-12T15:57:57.652Z,9.00
2018-06-12T16:00:38.974Z,8.70
2018-06-12T16:03:07.837Z,8.40
2018-06-12T16:05:36.823Z,9.03
2018-06-12T16:08:06.655Z,8.40
2018-06-12T16:10:35.346Z,7.17
2018-06-12T16:13:04.162Z,8.40
2018-06-12T16:15:33.330Z,10.37
2018-06-12T16:18:01.917Z,7.67
2018-06-12T16:20:30.829Z,7.63
2018-06-12T16:22:59.923Z,10.13
2018-06-12T16:25:28.742Z,9.97
2018-06-12T16:27:57.574Z,9.23
2018-06-12T16:30:29.794Z,9.30
2018-06-12T16:32:58.551Z,9.60
2018-06-12T16:35:27.306Z,9.33
2018-06-12T16:37:56.012Z,8.00
2018-06-12T16:40:27.603Z,9.43
2018-06-12T16:42:58.782Z,9.40
2018-06-12T16:45:29.028Z,10.27
2018-06-12T16:47:57.945Z,8.83
2018-06-12T16:50:26.828Z,8.97
2018-06-12T16:52:55.492Z,8.83
2018-06-12T16:55:24.134Z,8.93
2018-06-12T16:57:52.904Z,7.70
2018-06-12T17:00:21.913Z,8.93
2018-06-12T17:02:50.925Z,8.10
2018-06-12T17:05:20.285Z,7.60
2018-06-12T17:07:49.046Z,8.00
2018-06-12T17:10:17.997Z,8.87
2018-06-12T17:12:46.963Z,7.30
2018-06-12T17:15:15.656Z,6.83
2018-06-12T17:17:44.356Z,6.87
2018-06-12T17:20:13.222Z,9.60
2018-06-12T17:22:41.916Z,9.17
2018-06-12T17:25:10.630Z,7.70
2018-06-12T17:27:39.600Z,8.20
2018-06-12T17:30:08.746Z,8.20
2018-06-12T17:32:37.381Z,7.40
2018-06-12T17:35:06.105Z,8.37
2018-06-12T17:37:34.896Z,7.70
2018-06-12T17:40:04.126Z,7.47
2018-06-12T17:42:32.970Z,7.30
2018-06-12T17:45:02.574Z,8.40
2018-06-12T17:47:33.565Z,6.53
2018-06-12T17:50:02.731Z,7.70
2018-06-12T17:52:32.402Z,7.30
2018-06-12T17:55:04.465Z,8.57
2018-06-12T17:57:33.416Z,8.40
2018-06-12T18:03:04.993Z,8.83
2018-06-12T18:05:34.250Z,6.83
2018-06-12T18:08:03.632Z,8.33
2018-06-12T18:10:33.236Z,8.00
2018-06-12T18:13:02.567Z,8.57
2018-06-12T18:15:31.602Z,6.70
2018-06-12T18:18:00.622Z,8.27
2018-06-12T18:20:29.579Z,7.70
2018-06-12T18:22:58.566Z,6.90
2018-06-12T18:25:27.518Z,8.00
2018-06-12T18:27:59.195Z,7.30
2018-06-12T18:30:28.266Z,7.43
2018-06-12T18:32:57.350Z,7.90
2018-06-12T18:35:26.298Z,6.37
2018-06-12T18:37:56.402Z,8.53
2018-06-12T18:43:21.783Z,8.70
2018-06-12T18:45:53.678Z,7.93
2018-06-12T18:48:23.510Z,7.53
2018-06-12T18:50:52.555Z,8.00
2018-06-12T18:53:25.795Z,8.77
2018-06-12T18:55:54.924Z,8.07
2018-06-12T18:58:23.873Z,8.47
2018-06-12T19:00:53.133Z,8.40
2018-06-12T19:03:21.769Z,7.77
2018-06-12T19:05:50.763Z,6.03
2018-06-12T19:08:19.617Z,7.90
2018-06-12T19:10:48.426Z,6.57
2018-06-12T19:13:17.173Z,7.27
2018-06-12T19:15:46.091Z,6.17
2018-06-12T19:18:15.591Z,6.93
2018-06-12T19:20:49.149Z,6.90
2018-06-12T19:23:18.034Z,7.00
2018-06-12T19:25:46.791Z,7.60
2018-06-12T19:28:15.625Z,7.30
2018-06-12T19:30:44.943Z,7.87
2018-06-12T19:33:13.755Z,7.37
2018-06-12T19:35:42.573Z,6.93
2018-06-12T19:38:15.530Z,6.67
2018-06-12T19:40:44.299Z,7.43
2018-06-12T19:43:13.114Z,7.97
2018-06-12T19:45:42.037Z,5.73
2018-06-12T19:48:10.963Z,7.63
2018-06-12T19:50:41.792Z,7.30
2018-06-12T19:53:11.690Z,6.43
2018-06-12T19:55:45.089Z,7.20
2018-06-12T19:58:14.017Z,6.70
2018-06-12T20:00:43.830Z,7.80
2018-06-12T20:03:14.801Z,8.00
2018-06-12T20:05:43.677Z,7.00
2018-06-12T20:08:12.561Z,6.37
2018-06-12T20:10:41.362Z,6.30
2018-06-12T20:13:10.315Z,6.37
2018-06-12T20:15:39.201Z,6.53
2018-06-12T20:18:08.066Z,6.70
2018-06-12T20:20:36.882Z,4.40
2018-06-12T20:23:05.766Z,6.57
2018-06-12T20:25:37.371Z,6.50
2018-06-12T20:28:06.295Z,4.80
2018-06-12T20:30:35.406Z,4.90
2018-06-12T20:33:04.607Z,5.97
2018-06-12T20:35:33.455Z,4.80
2018-06-12T20:38:02.328Z,6.27
2018-06-12T20:40:31.090Z,3.83
2018-06-12T20:42:59.901Z,5.70
2018-06-12T20:45:29.206Z,4.80
2018-06-12T20:47:58.227Z,5.00
2018-06-12T20:50:27.305Z,5.33
2018-06-12T20:52:56.254Z,4.97
2018-06-12T20:55:24.971Z,5.13
2018-06-12T20:57:53.967Z,4.80
2018-06-12T21:00:23.062Z,4.60
2018-06-12T21:02:52.020Z,4.20
2018-06-12T21:05:20.822Z,3.50
2018-06-12T21:07:50.154Z,4.53
2018-06-12T21:10:19.136Z,3.10
2018-06-12T21:12:47.903Z,4.13
2018-06-12T21:15:19.891Z,4.50
2018-06-12T21:17:48.577Z,3.40
2018-06-12T21:20:17.308Z,3.37
2018-06-12T21:22:46.016Z,3.10
2018-06-12T21:25:14.591Z,3.90
2018-06-12T21:27:43.267Z,3.60
2018-06-12T21:30:11.998Z,4.10
2018-06-12T21:32:40.791Z,4.70
2018-06-12T21:35:09.441Z,4.47
2018-06-12T21:37:38.113Z,3.93
2018-06-12T21:40:06.923Z,3.70
2018-06-12T21:42:35.670Z,3.20
2018-06-12T21:45:04.454Z,3.83
2018-06-12T21:47:33.288Z,2.20
2018-06-12T21:50:02.075Z,3.17
2018-06-12T21:52:30.826Z,2.83
2018-06-12T21:54:59.529Z,2.60
2018-06-12T21:57:28.264Z,2.93
2018-06-12T21:59:57.020Z,3.57
2018-06-12T22:02:25.736Z,2.57
2018-06-12T22:07:57.344Z,2.80
2018-06-12T22:10:26.256Z,3.13
2018-06-12T22:12:55.005Z,2.47
2018-06-12T22:15:23.644Z,3.70
2018-06-12T22:17:53.271Z,3.10
2018-06-12T22:20:21.910Z,4.27
2018-06-12T22:22:50.609Z,2.43
2018-06-12T22:25:19.353Z,3.03
2018-06-12T22:27:48.272Z,2.57
2018-06-12T22:30:17.614Z,2.83
2018-06-12T22:32:46.302Z,3.27
2018-06-12T22:35:15.056Z,4.00
2018-06-12T22:37:43.824Z,2.63
2018-06-12T22:40:12.654Z,3.63
2018-06-12T22:42:41.322Z,3.80
2018-06-12T22:45:09.934Z,3.23
2018-06-12T22:47:38.677Z,3.33
2018-06-12T22:50:07.410Z,1.93
2018-06-12T22:52:36.161Z,3.37
2018-06-12T22:55:05.019Z,2.90
2018-06-12T22:57:33.662Z,2.40
2018-06-12T23:00:02.367Z,3.60
2018-06-12T23:02:31.061Z,3.03
2018-06-12T23:04:59.855Z,2.47
2018-06-12T23:07:28.633Z,2.63
2018-06-12T23:09:57.410Z,2.80
2018-06-12T23:12:26.134Z,2.43
2018-06-12T23:14:54.929Z,1.73
2018-06-12T23:17:23.677Z,2.33
2018-06-12T23:20:03.454Z,2.00
2018-06-12T23:22:32.230Z,2.63
2018-06-12T23:25:01.257Z,2.80
2018-06-12T23:27:30.039Z,2.80
2018-06-12T23:29:58.758Z,3.00
2018-06-12T23:32:27.569Z,2.90
2018-06-12T23:34:56.290Z,2.37
2018-06-12T23:37:25.381Z,3.27
2018-06-12T23:39:54.013Z,2.70
2018-06-12T23:42:22.817Z,2.73
2018-06-12T23:44:51.405Z,2.53
2018-06-12T23:47:20.011Z,2.47
2018-06-12T23:49:48.800Z,2.40
2018-06-12T23:52:17.619Z,1.57
2018-06-12T23:54:46.382Z,2.50
2018-06-12T23:57:15.110Z,2.30
2018-06-12T23:59:43.853Z,2.60
